Current Weather

Union County

Marysville, Ohio (KMRT)

Report from: Sunday, June 26, 2022 12:35 PM EDT
Current time: Sunday, June 26, 2022 12:55 PM EDT

Nearby weather
Weather history
Weather forecast

Temperature27.6°C (81.7°F)
Heat index28.9°C (84.1°F)
Dew point18.5°C (65.3°F)
Winds 8 kts (4.1 m/s, 9.2 mph) West-Southwest (250°)
Visibility10 mi. (16.1 km)
Clouds Scattered clouds 3,300 ft. (1,006 m)
Altimeter30.05 in.Hg (1018 mB)
Relative humidity58 %
Density altitude1,595 ft. (486 m)
Remarks Fully automated report
Automated weather observing station with precipitation discriminator
Flight conditions Visual Meteorological Conditions
Raw dataKMRT 261635Z AUTO 25008KT 10SM SCT033 28/19 A3005 RMK AO2 T02760185
An error has occurred. This application may no longer respond until reloaded. Reload 🗙